createdAt,value
2023-03-22T00:00:06.330Z,969.63
2023-03-22T00:01:03.973Z,969.61
2023-03-22T00:02:04.011Z,969.62
2023-03-22T00:03:04.134Z,969.58
2023-03-22T00:04:04.151Z,969.59
2023-03-22T00:05:04.892Z,969.58
2023-03-22T00:06:04.198Z,969.58
2023-03-22T00:07:04.264Z,969.59
2023-03-22T00:08:04.295Z,969.62
2023-03-22T00:09:04.388Z,969.64
2023-03-22T00:10:04.440Z,969.64
2023-03-22T00:11:04.439Z,969.67
2023-03-22T00:12:06.299Z,969.67
2023-03-22T00:13:04.530Z,969.68
2023-03-22T00:14:04.578Z,969.68
2023-03-22T00:15:04.653Z,969.66
2023-03-22T00:16:04.777Z,969.70
2023-03-22T00:17:04.712Z,969.69
2023-03-22T00:18:04.764Z,969.66
2023-03-22T00:19:04.797Z,969.68
2023-03-22T00:20:04.899Z,969.68
2023-03-22T00:21:04.890Z,969.65
2023-03-22T00:22:04.957Z,969.68
2023-03-22T00:23:04.991Z,969.71
2023-03-22T00:24:05.042Z,969.67
2023-03-22T00:25:05.116Z,969.67
2023-03-22T00:26:05.146Z,969.69
2023-03-22T00:27:05.216Z,969.72
2023-03-22T00:28:05.226Z,969.72
2023-03-22T00:29:05.271Z,969.69
2023-03-22T00:30:05.320Z,969.64
2023-03-22T00:31:05.420Z,969.61
2023-03-22T00:32:05.456Z,969.58
2023-03-22T00:33:05.487Z,969.55
2023-03-22T00:34:05.533Z,969.54
2023-03-22T00:35:05.555Z,969.47
2023-03-22T00:36:05.607Z,969.46
2023-03-22T00:37:06.109Z,969.47
2023-03-22T00:38:06.148Z,969.43
2023-03-22T00:39:06.160Z,969.40
2023-03-22T00:40:06.195Z,969.38
2023-03-22T00:41:05.837Z,969.36
2023-03-22T00:42:05.874Z,969.39
2023-03-22T00:43:05.959Z,969.42
2023-03-22T00:44:05.967Z,969.43
2023-03-22T00:45:06.033Z,969.41
2023-03-22T00:46:06.125Z,969.38
2023-03-22T00:47:06.158Z,969.38
2023-03-22T00:48:06.169Z,969.39
2023-03-22T00:49:06.213Z,969.41
2023-03-22T00:50:06.264Z,969.40
2023-03-22T00:51:06.314Z,969.40
2023-03-22T00:52:06.375Z,969.42
2023-03-22T00:53:06.394Z,969.37
2023-03-22T00:54:06.436Z,969.41
2023-03-22T00:55:06.525Z,969.37
2023-03-22T00:56:06.527Z,969.36
2023-03-22T00:57:06.625Z,969.41
2023-03-22T00:58:06.623Z,969.36
2023-03-22T00:59:06.675Z,969.32
2023-03-22T01:00:06.730Z,969.33
2023-03-22T01:01:06.810Z,969.30
2023-03-22T01:02:06.847Z,969.31
2023-03-22T01:03:06.912Z,969.31
2023-03-22T01:04:06.906Z,969.32
2023-03-22T01:05:07.908Z,969.35
2023-03-22T01:06:06.991Z,969.31
2023-03-22T01:07:07.076Z,969.32
2023-03-22T01:08:07.089Z,969.36
2023-03-22T01:09:07.181Z,969.35
2023-03-22T01:10:07.204Z,969.38
2023-03-22T01:11:07.241Z,969.36
2023-03-22T01:12:07.288Z,969.34
2023-03-22T01:13:07.325Z,969.33
2023-03-22T01:14:07.409Z,969.33
2023-03-22T01:15:10.338Z,969.31
2023-03-22T01:16:07.518Z,969.29
2023-03-22T01:17:07.514Z,969.30
2023-03-22T01:18:07.593Z,969.26
2023-03-22T01:19:07.648Z,969.26
2023-03-22T01:20:07.654Z,969.27
2023-03-22T01:21:07.697Z,969.20
2023-03-22T01:22:07.758Z,969.19
2023-03-22T01:23:07.789Z,969.16
2023-03-22T01:24:07.876Z,969.18
2023-03-22T01:25:07.931Z,969.18
2023-03-22T01:26:07.945Z,969.17
2023-03-22T01:27:07.978Z,969.18
2023-03-22T01:28:08.028Z,969.15
2023-03-22T01:29:08.071Z,969.16
2023-03-22T01:30:08.176Z,969.17
2023-03-22T01:31:10.660Z,969.18
2023-03-22T01:32:10.679Z,969.17
2023-03-22T01:33:08.266Z,969.21
2023-03-22T01:34:08.319Z,969.21
2023-03-22T01:35:10.756Z,969.21
2023-03-22T01:36:08.445Z,969.19
2023-03-22T01:37:08.449Z,969.20
2023-03-22T01:38:08.506Z,969.18
2023-03-22T01:39:10.813Z,969.20
2023-03-22T01:40:10.863Z,969.18
2023-03-22T01:41:11.411Z,969.15
2023-03-22T01:42:08.724Z,969.18
2023-03-22T01:43:11.013Z,969.19
2023-03-22T01:44:08.777Z,969.14
2023-03-22T01:45:10.992Z,969.15
2023-03-22T01:46:11.049Z,969.18
2023-03-22T01:47:11.044Z,969.17
2023-03-22T01:48:11.118Z,969.19
2023-03-22T01:49:11.944Z,969.16
2023-03-22T01:50:11.125Z,969.19
2023-03-22T01:51:11.155Z,969.23
2023-03-22T01:52:11.185Z,969.20
2023-03-22T01:53:11.925Z,969.23
2023-03-22T01:54:11.233Z,969.24
2023-03-22T01:55:11.916Z,969.25
2023-03-22T01:56:09.351Z,969.25
2023-03-22T01:57:09.400Z,969.25
2023-03-22T01:58:09.481Z,969.21
2023-03-22T01:59:09.488Z,969.23
2023-03-22T02:00:11.335Z,969.21
2023-03-22T02:01:11.408Z,969.18
2023-03-22T02:02:09.654Z,969.14
2023-03-22T02:03:11.405Z,969.15
2023-03-22T02:04:11.466Z,969.09
2023-03-22T02:05:11.408Z,969.07
2023-03-22T02:06:09.810Z,969.10
2023-03-22T02:07:09.899Z,969.07
2023-03-22T02:08:09.900Z,969.09
2023-03-22T02:09:11.491Z,969.11
2023-03-22T02:10:10.042Z,969.10
2023-03-22T02:11:11.547Z,969.14
2023-03-22T02:12:10.095Z,969.16
2023-03-22T02:13:10.913Z,969.17
2023-03-22T02:14:10.188Z,969.20
2023-03-22T02:15:10.249Z,969.19
2023-03-22T02:16:10.348Z,969.19
2023-03-22T02:17:10.319Z,969.21
2023-03-22T02:18:10.404Z,969.16
2023-03-22T02:19:10.444Z,969.18
2023-03-22T02:20:10.473Z,969.16
2023-03-22T02:21:10.502Z,969.20
2023-03-22T02:22:11.148Z,969.18
2023-03-22T02:23:11.173Z,969.16
2023-03-22T02:24:11.193Z,969.14
2023-03-22T02:25:10.691Z,969.14
2023-03-22T02:26:10.761Z,969.14
2023-03-22T02:27:10.772Z,969.11
2023-03-22T02:28:10.866Z,969.10
2023-03-22T02:29:10.871Z,969.16
2023-03-22T02:30:10.926Z,969.13
2023-03-22T02:31:10.982Z,969.10
2023-03-22T02:32:11.016Z,969.13
2023-03-22T02:33:11.083Z,969.14
2023-03-22T02:34:11.142Z,969.14
2023-03-22T02:35:11.146Z,969.14
2023-03-22T02:36:11.206Z,969.11
2023-03-22T02:37:11.235Z,969.12
2023-03-22T02:38:11.297Z,969.11
2023-03-22T02:39:11.375Z,969.16
2023-03-22T02:40:11.372Z,969.14
2023-03-22T02:41:11.440Z,969.19
2023-03-22T02:42:11.469Z,969.18
2023-03-22T02:43:11.518Z,969.20
2023-03-22T02:44:11.595Z,969.17
2023-03-22T02:45:18.421Z,969.20
2023-03-22T02:46:18.440Z,969.18
2023-03-22T02:47:18.419Z,969.13
2023-03-22T02:48:14.858Z,969.16
2023-03-22T02:49:11.814Z,969.11
2023-03-22T02:50:11.862Z,969.15
2023-03-22T02:51:11.886Z,969.11
2023-03-22T02:52:14.919Z,969.18
2023-03-22T02:53:14.947Z,969.14
2023-03-22T02:54:14.957Z,969.13
2023-03-22T02:55:15.000Z,969.17
2023-03-22T02:56:15.026Z,969.17
2023-03-22T02:57:15.053Z,969.17
2023-03-22T02:58:15.077Z,969.15
2023-03-22T02:59:15.144Z,969.13
2023-03-22T03:00:15.113Z,969.16
2023-03-22T03:01:15.196Z,969.14
2023-03-22T03:02:15.227Z,969.15
2023-03-22T03:03:15.188Z,969.17
2023-03-22T03:04:12.471Z,969.18
2023-03-22T03:05:12.514Z,969.18
2023-03-22T03:06:12.596Z,969.19
2023-03-22T03:07:12.607Z,969.15
2023-03-22T03:08:12.642Z,969.14
2023-03-22T03:09:12.702Z,969.17
2023-03-22T03:10:12.745Z,969.15
2023-03-22T03:11:12.828Z,969.16
2023-03-22T03:12:12.828Z,969.15
2023-03-22T03:13:12.878Z,969.15
2023-03-22T03:14:12.947Z,969.14
2023-03-22T03:15:15.389Z,969.14
2023-03-22T03:16:13.035Z,969.13
2023-03-22T03:17:13.100Z,969.14
2023-03-22T03:18:13.111Z,969.13
2023-03-22T03:19:13.141Z,969.16
2023-03-22T03:20:13.196Z,969.15
2023-03-22T03:21:13.230Z,969.15
2023-03-22T03:22:13.318Z,969.13
2023-03-22T03:23:13.330Z,969.13
2023-03-22T03:24:13.390Z,969.12
2023-03-22T03:25:15.671Z,969.11
2023-03-22T03:26:13.462Z,969.09
2023-03-22T03:27:13.535Z,969.12
2023-03-22T03:28:13.579Z,969.15
2023-03-22T03:29:13.586Z,969.12
2023-03-22T03:30:13.638Z,969.10
2023-03-22T03:31:13.698Z,969.17
2023-03-22T03:32:13.762Z,969.13
2023-03-22T03:33:13.777Z,969.15
2023-03-22T03:34:13.825Z,969.16
2023-03-22T03:35:13.858Z,969.17
2023-03-22T03:36:13.913Z,969.15
2023-03-22T03:37:13.973Z,969.14
2023-03-22T03:38:14.028Z,969.15
2023-03-22T03:39:14.037Z,969.16
2023-03-22T03:40:14.098Z,969.16
2023-03-22T03:41:14.144Z,969.20
2023-03-22T03:42:14.208Z,969.15
2023-03-22T03:43:14.249Z,969.18
2023-03-22T03:44:14.265Z,969.14
2023-03-22T03:45:14.360Z,969.19
2023-03-22T03:46:14.395Z,969.20
2023-03-22T03:47:14.433Z,969.21
2023-03-22T03:48:14.485Z,969.22
2023-03-22T03:49:14.508Z,969.25
2023-03-22T03:50:14.531Z,969.30
2023-03-22T03:51:14.587Z,969.31
2023-03-22T03:52:14.893Z,969.36
2023-03-22T03:53:14.695Z,969.32
2023-03-22T03:54:14.941Z,969.36
2023-03-22T03:55:14.777Z,969.37
2023-03-22T03:56:14.798Z,969.37
2023-03-22T03:57:14.885Z,969.34
2023-03-22T03:58:14.889Z,969.34
2023-03-22T03:59:14.970Z,969.38
2023-03-22T04:00:14.987Z,969.38
2023-03-22T04:01:15.032Z,969.41
2023-03-22T04:02:15.112Z,969.40
2023-03-22T04:03:15.152Z,969.43
2023-03-22T04:04:15.197Z,969.44
2023-03-22T04:05:15.218Z,969.46
2023-03-22T04:06:15.271Z,969.44
2023-03-22T04:07:15.300Z,969.39
2023-03-22T04:08:15.380Z,969.43
2023-03-22T04:09:15.408Z,969.43
2023-03-22T04:10:15.433Z,969.41
2023-03-22T04:11:15.467Z,969.39
2023-03-22T04:12:15.562Z,969.39
2023-03-22T04:13:15.572Z,969.37
2023-03-22T04:14:15.612Z,969.33
2023-03-22T04:15:15.681Z,969.36
2023-03-22T04:16:15.714Z,969.38
2023-03-22T04:17:15.740Z,969.35
2023-03-22T04:18:15.789Z,969.35
2023-03-22T04:19:15.826Z,969.30
2023-03-22T04:20:15.897Z,969.34
2023-03-22T04:21:18.178Z,969.33
2023-03-22T04:22:15.995Z,969.35
2023-03-22T04:23:18.942Z,969.34
2023-03-22T04:24:16.076Z,969.32
2023-03-22T04:25:18.324Z,969.32
2023-03-22T04:26:16.146Z,969.28
2023-03-22T04:27:18.286Z,969.28
2023-03-22T04:28:18.371Z,969.25
2023-03-22T04:29:18.303Z,969.26
2023-03-22T04:30:18.343Z,969.23
2023-03-22T04:31:16.388Z,969.27
2023-03-22T04:32:16.418Z,969.28
2023-03-22T04:33:16.482Z,969.24
2023-03-22T04:34:16.509Z,969.26
2023-03-22T04:35:16.632Z,969.29
2023-03-22T04:36:16.588Z,969.28
2023-03-22T04:37:16.665Z,969.25
2023-03-22T04:38:16.671Z,969.25
2023-03-22T04:39:18.488Z,969.27
2023-03-22T04:40:16.780Z,969.26
2023-03-22T04:41:18.551Z,969.30
2023-03-22T04:42:16.873Z,969.25
2023-03-22T04:43:16.925Z,969.29
2023-03-22T04:44:16.964Z,969.27
2023-03-22T04:45:16.990Z,969.28
2023-03-22T04:46:17.082Z,969.29
2023-03-22T04:47:18.683Z,969.27
2023-03-22T04:48:18.750Z,969.27
2023-03-22T04:49:17.179Z,969.27
2023-03-22T04:50:18.750Z,969.29
2023-03-22T04:51:17.246Z,969.25
2023-03-22T04:52:18.816Z,969.30
2023-03-22T04:53:18.842Z,969.28
2023-03-22T04:54:17.409Z,969.26
2023-03-22T04:55:17.433Z,969.28
2023-03-22T04:56:17.471Z,969.29
2023-03-22T04:57:17.532Z,969.28
2023-03-22T04:58:18.946Z,969.29
2023-03-22T04:59:17.639Z,969.26
2023-03-22T05:00:17.805Z,969.27
2023-03-22T05:01:17.834Z,969.25
2023-03-22T05:02:17.850Z,969.27
2023-03-22T05:03:19.062Z,969.28
2023-03-22T05:04:19.091Z,969.27
2023-03-22T05:05:19.087Z,969.27
2023-03-22T05:06:17.910Z,969.27
2023-03-22T05:07:18.078Z,969.27
2023-03-22T05:08:17.998Z,969.26
2023-03-22T05:09:18.063Z,969.25
2023-03-22T05:10:18.129Z,969.24
2023-03-22T05:11:18.124Z,969.25
2023-03-22T05:12:19.330Z,969.27
2023-03-22T05:13:18.217Z,969.30
2023-03-22T05:14:19.317Z,969.30
2023-03-22T05:15:19.292Z,969.33
2023-03-22T05:16:19.358Z,969.32
2023-03-22T05:17:18.388Z,969.33
2023-03-22T05:18:18.444Z,969.31
2023-03-22T05:19:18.563Z,969.34
2023-03-22T05:20:18.620Z,969.35
2023-03-22T05:21:19.639Z,969.34
2023-03-22T05:22:18.637Z,969.36
2023-03-22T05:23:18.655Z,969.31
2023-03-22T05:24:18.717Z,969.33
2023-03-22T05:25:19.510Z,969.33
2023-03-22T05:26:18.814Z,969.34
2023-03-22T05:27:18.829Z,969.30
2023-03-22T05:28:18.876Z,969.27
2023-03-22T05:29:19.186Z,969.29
2023-03-22T05:30:19.038Z,969.28
2023-03-22T05:31:19.339Z,969.28
2023-03-22T05:32:19.174Z,969.32
2023-03-22T05:33:20.960Z,969.29
2023-03-22T05:34:19.967Z,969.24
2023-03-22T05:35:19.222Z,969.26
2023-03-22T05:36:19.236Z,969.25
2023-03-22T05:37:19.900Z,969.23
2023-03-22T05:38:19.408Z,969.27
2023-03-22T05:39:19.529Z,969.24
2023-03-22T05:40:20.120Z,969.27
2023-03-22T05:41:19.732Z,969.27
2023-03-22T05:42:21.589Z,969.30
2023-03-22T05:43:22.493Z,969.21
2023-03-22T05:44:33.453Z,969.24
2023-03-22T05:45:30.577Z,969.26
2023-03-22T05:46:20.471Z,969.30
2023-03-22T05:47:21.450Z,969.28
2023-03-22T05:48:20.040Z,969.30
2023-03-22T05:49:19.809Z,969.31
2023-03-22T05:50:19.901Z,969.28
2023-03-22T05:51:19.888Z,969.28
2023-03-22T05:52:19.927Z,969.31
2023-03-22T05:53:19.981Z,969.28
2023-03-22T05:54:20.037Z,969.33
2023-03-22T05:55:20.104Z,969.37
2023-03-22T05:56:20.138Z,969.35
2023-03-22T05:57:20.188Z,969.37
2023-03-22T05:58:20.208Z,969.36
2023-03-22T05:59:20.245Z,969.39
2023-03-22T06:00:20.316Z,969.34
2023-03-22T06:01:20.412Z,969.37
2023-03-22T06:02:20.406Z,969.38
2023-03-22T06:03:20.434Z,969.36
2023-03-22T06:04:21.854Z,969.35
2023-03-22T06:05:20.515Z,969.35
2023-03-22T06:06:20.586Z,969.36
2023-03-22T06:07:20.600Z,969.40
2023-03-22T06:08:20.638Z,969.40
2023-03-22T06:09:20.685Z,969.38
2023-03-22T06:10:20.727Z,969.40
2023-03-22T06:11:20.792Z,969.38
2023-03-22T06:12:20.819Z,969.37
2023-03-22T06:13:20.907Z,969.41
2023-03-22T06:14:20.905Z,969.40
2023-03-22T06:15:20.959Z,969.40
2023-03-22T06:16:21.025Z,969.41
2023-03-22T06:17:21.059Z,969.41
2023-03-22T06:18:21.110Z,969.43
2023-03-22T06:19:21.118Z,969.36
2023-03-22T06:20:21.214Z,969.38
2023-03-22T06:21:21.212Z,969.39
2023-03-22T06:22:21.266Z,969.37
2023-03-22T06:23:21.300Z,969.42
2023-03-22T06:24:21.381Z,969.40
2023-03-22T06:25:21.385Z,969.42
2023-03-22T06:26:21.439Z,969.40
2023-03-22T06:27:21.473Z,969.44
2023-03-22T06:28:21.555Z,969.44
2023-03-22T06:29:21.562Z,969.43
2023-03-22T06:30:21.648Z,969.44
2023-03-22T06:31:21.744Z,969.46
2023-03-22T06:32:21.697Z,969.49
2023-03-22T06:33:21.760Z,969.47
2023-03-22T06:34:21.811Z,969.46
2023-03-22T06:35:21.906Z,969.42
2023-03-22T06:36:21.920Z,969.44
2023-03-22T06:37:22.019Z,969.43
2023-03-22T06:38:21.986Z,969.40
2023-03-22T06:39:22.013Z,969.44
2023-03-22T06:40:22.075Z,969.41
2023-03-22T06:41:22.210Z,969.44
2023-03-22T06:42:22.139Z,969.42
2023-03-22T06:43:22.203Z,969.42
2023-03-22T06:44:22.222Z,969.46
2023-03-22T06:45:22.312Z,969.44
2023-03-22T06:46:22.448Z,969.43
2023-03-22T06:47:22.426Z,969.45
2023-03-22T06:48:22.438Z,969.45
2023-03-22T06:49:22.457Z,969.45
2023-03-22T06:50:22.487Z,969.46
2023-03-22T06:51:22.569Z,969.47
2023-03-22T06:52:22.595Z,969.49
2023-03-22T06:53:22.636Z,969.52
2023-03-22T06:54:22.670Z,969.52
2023-03-22T06:55:22.760Z,969.47
2023-03-22T06:56:22.786Z,969.51
2023-03-22T06:57:22.819Z,969.52
2023-03-22T06:58:22.852Z,969.52
2023-03-22T06:59:22.907Z,969.50
2023-03-22T07:00:22.975Z,969.54
2023-03-22T07:01:23.048Z,969.58
2023-03-22T07:02:23.064Z,969.53
2023-03-22T07:03:23.085Z,969.53
2023-03-22T07:04:23.151Z,969.55
2023-03-22T07:05:23.184Z,969.54
2023-03-22T07:06:23.220Z,969.52
2023-03-22T07:07:23.316Z,969.50
2023-03-22T07:08:23.321Z,969.51
2023-03-22T07:09:23.369Z,969.46
2023-03-22T07:10:23.413Z,969.47
2023-03-22T07:11:23.450Z,969.46
2023-03-22T07:12:23.537Z,969.47
2023-03-22T07:13:23.547Z,969.48
2023-03-22T07:14:23.607Z,969.47
2023-03-22T07:15:23.680Z,969.51
2023-03-22T07:16:23.986Z,969.50
2023-03-22T07:17:23.739Z,969.50
2023-03-22T07:18:23.796Z,969.54
2023-03-22T07:19:23.834Z,969.60
2023-03-22T07:20:23.976Z,969.59
2023-03-22T07:21:23.938Z,969.61
2023-03-22T07:22:23.989Z,969.59
2023-03-22T07:23:24.026Z,969.63
2023-03-22T07:24:24.096Z,969.62
2023-03-22T07:25:24.217Z,969.65
2023-03-22T07:26:24.181Z,969.65
2023-03-22T07:27:24.233Z,969.66
2023-03-22T07:28:24.286Z,969.64
2023-03-22T07:29:24.316Z,969.62
2023-03-22T07:30:24.439Z,969.64
2023-03-22T07:31:24.414Z,969.59
2023-03-22T07:32:24.563Z,969.60
2023-03-22T07:33:24.512Z,969.63
2023-03-22T07:34:24.602Z,969.61
2023-03-22T07:35:26.887Z,969.59
2023-03-22T07:36:24.687Z,969.62
2023-03-22T07:37:24.758Z,969.67
2023-03-22T07:38:24.798Z,969.63
2023-03-22T07:39:24.859Z,969.62
2023-03-22T07:40:24.979Z,969.66
2023-03-22T07:41:24.936Z,969.61
2023-03-22T07:42:25.070Z,969.68
2023-03-22T07:43:25.045Z,969.63
2023-03-22T07:44:25.102Z,969.69
2023-03-22T07:45:25.264Z,969.64
2023-03-22T07:46:25.228Z,969.69
2023-03-22T07:47:39.972Z,969.70
2023-03-22T07:48:25.306Z,969.71
2023-03-22T07:49:25.336Z,969.73
2023-03-22T07:50:25.416Z,969.74
2023-03-22T07:51:25.422Z,969.75
2023-03-22T07:52:25.471Z,969.72
2023-03-22T07:53:25.526Z,969.70
2023-03-22T07:54:33.406Z,969.71
2023-03-22T07:55:25.682Z,969.71
2023-03-22T07:56:25.713Z,969.68
2023-03-22T07:57:25.750Z,969.65
2023-03-22T07:58:25.783Z,969.68
2023-03-22T07:59:25.828Z,969.66
2023-03-22T08:00:25.892Z,969.69
2023-03-22T08:01:25.928Z,969.67
2023-03-22T08:02:25.988Z,969.69
2023-03-22T08:03:26.099Z,969.69
2023-03-22T08:04:26.066Z,969.66
2023-03-22T08:05:26.173Z,969.66
2023-03-22T08:06:26.176Z,969.66
2023-03-22T08:07:26.252Z,969.66
2023-03-22T08:08:26.276Z,969.69
2023-03-22T08:09:26.340Z,969.69
2023-03-22T08:10:26.430Z,969.68
2023-03-22T08:11:26.426Z,969.75
2023-03-22T08:12:26.497Z,969.71
2023-03-22T08:13:26.537Z,969.73
2023-03-22T08:14:35.953Z,969.71
2023-03-22T08:15:26.660Z,969.72
2023-03-22T08:16:26.751Z,969.70
2023-03-22T08:17:26.733Z,969.70
2023-03-22T08:18:27.505Z,969.67
2023-03-22T08:19:26.866Z,969.68
2023-03-22T08:20:26.912Z,969.69
2023-03-22T08:21:26.937Z,969.70
2023-03-22T08:22:27.024Z,969.71
2023-03-22T08:23:40.428Z,969.69
2023-03-22T08:24:27.167Z,969.72
2023-03-22T08:25:27.259Z,969.71
2023-03-22T08:26:27.219Z,969.69
2023-03-22T08:27:27.302Z,969.72
2023-03-22T08:28:27.330Z,969.73
2023-03-22T08:29:27.384Z,969.72
2023-03-22T08:30:27.584Z,969.73
2023-03-22T08:31:27.499Z,969.67
2023-03-22T08:32:27.537Z,969.70
2023-03-22T08:33:27.594Z,969.68
2023-03-22T08:34:27.651Z,969.64
2023-03-22T08:35:27.712Z,969.61
2023-03-22T08:36:27.747Z,969.63
2023-03-22T08:37:28.523Z,969.60
2023-03-22T08:38:27.856Z,969.59
2023-03-22T08:39:27.918Z,969.58
2023-03-22T08:40:28.057Z,969.60
2023-03-22T08:41:28.040Z,969.60
2023-03-22T08:42:30.292Z,969.59
2023-03-22T08:43:30.297Z,969.57
2023-03-22T08:44:30.991Z,969.58
2023-03-22T08:45:29.756Z,969.57
2023-03-22T08:46:29.923Z,969.53
2023-03-22T08:47:29.813Z,969.57
2023-03-22T08:48:29.836Z,969.59
2023-03-22T08:49:30.035Z,969.51
2023-03-22T08:50:29.907Z,969.55
2023-03-22T08:51:29.927Z,969.50
2023-03-22T08:52:29.965Z,969.53
2023-03-22T08:53:29.984Z,969.49
2023-03-22T08:54:32.214Z,969.51
2023-03-22T08:55:30.039Z,969.49
2023-03-22T08:56:29.985Z,969.46
2023-03-22T08:57:30.025Z,969.43
2023-03-22T08:58:30.047Z,969.42
2023-03-22T08:59:30.093Z,969.44
2023-03-22T09:00:39.252Z,969.44
2023-03-22T09:01:30.263Z,969.42
2023-03-22T09:02:30.203Z,969.40
2023-03-22T09:03:30.173Z,969.40
2023-03-22T09:04:30.284Z,969.36
2023-03-22T09:05:30.231Z,969.32
2023-03-22T09:06:30.244Z,969.32
2023-03-22T09:07:30.417Z,969.30
2023-03-22T09:08:30.292Z,969.34
2023-03-22T09:09:30.328Z,969.30
2023-03-22T09:10:30.466Z,969.29
2023-03-22T09:11:32.533Z,969.28
2023-03-22T09:12:30.449Z,969.28
2023-03-22T09:13:30.387Z,969.29
2023-03-22T09:14:30.353Z,969.26
2023-03-22T09:15:30.388Z,969.23
2023-03-22T09:16:30.440Z,969.21
2023-03-22T09:17:30.411Z,969.21
2023-03-22T09:18:30.438Z,969.22
2023-03-22T09:19:30.481Z,969.20
2023-03-22T09:20:30.483Z,969.18
2023-03-22T09:21:30.532Z,969.20
2023-03-22T09:22:30.503Z,969.22
2023-03-22T09:23:30.540Z,969.18
2023-03-22T09:24:30.206Z,969.17
2023-03-22T09:25:30.245Z,969.18
2023-03-22T09:26:30.331Z,969.13
2023-03-22T09:27:31.000Z,969.16
2023-03-22T09:28:30.495Z,969.18
2023-03-22T09:29:30.456Z,969.13
2023-03-22T09:30:31.546Z,969.14
2023-03-22T09:31:30.602Z,969.11
2023-03-22T09:32:30.624Z,969.16
2023-03-22T09:33:30.670Z,969.16
2023-03-22T09:34:30.707Z,969.12
2023-03-22T09:35:30.809Z,969.12
2023-03-22T09:36:30.817Z,969.16
2023-03-22T09:37:30.872Z,969.19
2023-03-22T09:38:30.998Z,969.16
2023-03-22T09:39:31.031Z,969.13
2023-03-22T09:40:31.036Z,969.18
2023-03-22T09:41:31.138Z,969.16
2023-03-22T09:42:31.178Z,969.13
2023-03-22T09:43:33.115Z,969.17
2023-03-22T09:44:31.367Z,969.17
2023-03-22T09:45:31.432Z,969.18
2023-03-22T09:46:31.432Z,969.17
2023-03-22T09:47:43.958Z,969.18
2023-03-22T09:48:31.571Z,969.21
2023-03-22T09:49:38.439Z,969.14
2023-03-22T09:50:31.689Z,969.12
2023-03-22T09:51:31.642Z,969.13
2023-03-22T09:52:31.724Z,969.12
2023-03-22T09:53:31.748Z,969.14
2023-03-22T09:54:31.766Z,969.13
2023-03-22T09:55:31.854Z,969.11
2023-03-22T09:56:31.866Z,969.10
2023-03-22T09:57:31.930Z,969.07
2023-03-22T09:58:31.991Z,969.10
2023-03-22T09:59:32.029Z,969.13
2023-03-22T10:00:32.215Z,969.12
2023-03-22T10:01:32.303Z,969.13
2023-03-22T10:02:32.234Z,969.13
2023-03-22T10:03:32.240Z,969.15
2023-03-22T10:04:32.353Z,969.08
2023-03-22T10:05:32.442Z,969.09
2023-03-22T10:06:32.402Z,969.11
2023-03-22T10:07:32.463Z,969.08
2023-03-22T10:08:32.500Z,969.05
2023-03-22T10:09:32.578Z,969.05
2023-03-22T10:10:32.610Z,969.09
2023-03-22T10:11:32.739Z,969.06
2023-03-22T10:12:32.761Z,969.01
2023-03-22T10:13:32.801Z,969.03
2023-03-22T10:14:32.851Z,969.01
2023-03-22T10:15:32.954Z,969.03
2023-03-22T10:16:33.002Z,969.02
2023-03-22T10:17:33.025Z,969.02
2023-03-22T10:18:33.061Z,969.08
2023-03-22T10:19:33.062Z,969.07
2023-03-22T10:20:33.210Z,969.06
2023-03-22T10:21:33.239Z,969.03
2023-03-22T10:22:33.250Z,969.06
2023-03-22T10:23:33.338Z,969.08
2023-03-22T10:24:33.385Z,969.06
2023-03-22T10:25:33.423Z,969.03
2023-03-22T10:26:33.441Z,969.05
2023-03-22T10:27:33.494Z,969.06
2023-03-22T10:28:33.577Z,969.02
2023-03-22T10:29:33.598Z,969.06
2023-03-22T10:30:33.656Z,969.03
2023-03-22T10:31:33.870Z,969.01
2023-03-22T10:32:33.756Z,969.00
2023-03-22T10:33:33.823Z,968.97
2023-03-22T10:34:33.892Z,968.96
2023-03-22T10:35:34.012Z,968.95
2023-03-22T10:36:33.961Z,968.91
2023-03-22T10:37:34.003Z,968.90
2023-03-22T10:38:34.069Z,968.94
2023-03-22T10:39:34.121Z,968.92
2023-03-22T10:40:34.193Z,968.94
2023-03-22T10:41:34.225Z,968.92
2023-03-22T10:42:34.271Z,968.92
2023-03-22T10:43:34.329Z,968.92
2023-03-22T10:44:34.386Z,968.91
2023-03-22T10:45:34.532Z,968.92
2023-03-22T10:46:34.512Z,968.90
2023-03-22T10:47:34.549Z,968.93
2023-03-22T10:48:34.641Z,968.87
2023-03-22T10:49:34.646Z,968.85
2023-03-22T10:50:34.722Z,968.85
2023-03-22T10:51:34.754Z,968.84
2023-03-22T10:52:34.806Z,968.84
2023-03-22T10:53:34.859Z,968.87
2023-03-22T10:54:34.903Z,968.90
2023-03-22T10:55:34.989Z,968.90
2023-03-22T10:56:35.010Z,968.87
2023-03-22T10:57:35.072Z,968.90
2023-03-22T10:58:35.118Z,968.84
2023-03-22T10:59:35.179Z,968.85
2023-03-22T11:00:37.208Z,968.81
2023-03-22T11:01:35.332Z,968.84
2023-03-22T11:02:35.437Z,968.81
2023-03-22T11:03:35.399Z,968.75
2023-03-22T11:04:35.443Z,968.76
2023-03-22T11:05:35.514Z,968.72
2023-03-22T11:06:36.059Z,968.73
2023-03-22T11:07:35.631Z,968.75
2023-03-22T11:08:35.654Z,968.70
2023-03-22T11:09:35.710Z,968.72
2023-03-22T11:10:35.821Z,968.64
2023-03-22T11:11:35.812Z,968.63
2023-03-22T11:12:36.333Z,968.59
2023-03-22T11:13:35.920Z,968.59
2023-03-22T11:14:35.987Z,968.57
2023-03-22T11:15:36.118Z,968.59
2023-03-22T11:16:36.176Z,968.54
2023-03-22T11:17:36.150Z,968.54
2023-03-22T11:18:37.070Z,968.56
2023-03-22T11:19:36.268Z,968.54
2023-03-22T11:20:36.356Z,968.55
2023-03-22T11:21:36.422Z,968.53
2023-03-22T11:22:36.444Z,968.50
2023-03-22T11:23:36.462Z,968.50
2023-03-22T11:24:36.567Z,968.47
2023-03-22T11:25:36.634Z,968.47
2023-03-22T11:26:39.203Z,968.42
2023-03-22T11:27:36.771Z,968.40
2023-03-22T11:28:36.771Z,968.42
2023-03-22T11:29:36.809Z,968.36
2023-03-22T11:30:36.918Z,968.37
2023-03-22T11:31:36.919Z,968.36
2023-03-22T11:32:36.997Z,968.34
2023-03-22T11:33:37.119Z,968.30
2023-03-22T11:34:37.068Z,968.25
2023-03-22T11:35:37.159Z,968.29
2023-03-22T11:36:37.144Z,968.26
2023-03-22T11:37:37.220Z,968.22
2023-03-22T11:38:37.305Z,968.21
2023-03-22T11:39:37.322Z,968.18
2023-03-22T11:40:37.423Z,968.19
2023-03-22T11:41:37.423Z,968.20
2023-03-22T11:42:42.375Z,968.20
2023-03-22T11:43:37.563Z,968.17
2023-03-22T11:44:37.595Z,968.20
2023-03-22T11:45:37.742Z,968.20
2023-03-22T11:46:37.872Z,968.21
2023-03-22T11:47:37.896Z,968.17
2023-03-22T11:48:37.977Z,968.19
2023-03-22T11:49:37.908Z,968.19
2023-03-22T11:50:44.587Z,968.18
2023-03-22T11:51:38.004Z,968.16
2023-03-22T11:52:38.083Z,968.18
2023-03-22T11:53:38.134Z,968.22
2023-03-22T11:54:45.126Z,968.18
2023-03-22T11:55:45.128Z,968.16
2023-03-22T11:56:45.123Z,968.17
2023-03-22T11:57:45.080Z,968.16
2023-03-22T11:58:45.087Z,968.12
2023-03-22T11:59:45.071Z,968.12
2023-03-22T12:00:45.097Z,968.09
2023-03-22T12:01:45.079Z,968.12
2023-03-22T12:02:45.142Z,968.09
2023-03-22T12:03:45.688Z,968.07
2023-03-22T12:04:45.579Z,968.10
2023-03-22T12:05:45.601Z,968.13
2023-03-22T12:06:45.591Z,968.06
2023-03-22T12:07:45.585Z,968.07
2023-03-22T12:08:41.915Z,968.01
2023-03-22T12:09:41.982Z,968.05
2023-03-22T12:10:41.962Z,968.02
2023-03-22T12:11:42.029Z,968.01
2023-03-22T12:12:42.038Z,968.02
2023-03-22T12:13:42.078Z,967.97
2023-03-22T12:14:46.125Z,968.01
2023-03-22T12:15:42.273Z,967.96
2023-03-22T12:16:46.149Z,967.97
2023-03-22T12:17:42.183Z,967.96
2023-03-22T12:18:42.151Z,967.94
2023-03-22T12:19:42.170Z,967.90
2023-03-22T12:20:42.518Z,967.92
2023-03-22T12:21:42.192Z,967.90
2023-03-22T12:22:42.226Z,967.84
2023-03-22T12:23:42.240Z,967.89
2023-03-22T12:24:43.040Z,967.89
2023-03-22T12:25:42.597Z,967.89
2023-03-22T12:26:42.329Z,967.88
2023-03-22T12:27:42.347Z,967.88
2023-03-22T12:28:42.587Z,967.83